createdAt,value
2019-03-01T00:05:44.462Z,6.29
2019-03-01T00:11:35.003Z,6.07
2019-03-01T00:17:03.723Z,6.31
2019-03-01T00:22:35.545Z,6.10
2019-03-01T00:28:32.520Z,6.11
2019-03-01T00:34:03.757Z,5.98
2019-03-01T00:39:35.944Z,5.83
2019-03-01T00:44:41.921Z,5.82
2019-03-01T00:49:46.147Z,5.82
2019-03-01T00:54:50.696Z,5.90
2019-03-01T00:59:54.946Z,5.90
2019-03-01T01:04:59.220Z,5.95
2019-03-01T01:10:03.706Z,5.86
2019-03-01T01:15:08.134Z,5.89
2019-03-01T01:20:12.347Z,5.71
2019-03-01T01:25:16.557Z,5.65
2019-03-01T01:30:20.789Z,5.71
2019-03-01T01:35:28.928Z,5.80
2019-03-01T01:40:33.174Z,5.96
2019-03-01T01:45:37.396Z,5.90
2019-03-01T01:50:41.607Z,6.01
2019-03-01T01:55:45.821Z,5.91
2019-03-01T02:00:50.047Z,5.58
2019-03-01T02:05:54.481Z,5.45
2019-03-01T02:10:58.919Z,5.66
2019-03-01T02:16:03.156Z,5.70
2019-03-01T02:21:07.396Z,5.63
2019-03-01T02:26:11.646Z,5.37
2019-03-01T02:31:17.091Z,5.40
2019-03-01T02:36:21.385Z,5.40
2019-03-01T02:41:25.629Z,5.36
2019-03-01T02:46:29.865Z,5.26
2019-03-01T02:51:34.085Z,5.36
2019-03-01T02:56:38.318Z,5.17
2019-03-01T03:01:42.546Z,5.35
2019-03-01T03:06:54.766Z,5.40
2019-03-01T03:11:59.008Z,5.57
2019-03-01T03:17:03.521Z,5.46
2019-03-01T03:22:07.752Z,5.68
2019-03-01T03:27:12.028Z,5.80
2019-03-01T03:32:16.248Z,5.83
2019-03-01T03:37:20.477Z,5.86
2019-03-01T03:42:24.706Z,5.55
2019-03-01T03:47:28.931Z,5.76
2019-03-01T03:52:33.168Z,5.87
2019-03-01T03:57:37.404Z,5.81
2019-03-01T04:02:41.815Z,5.97
2019-03-01T04:07:46.751Z,5.76
2019-03-01T04:12:50.993Z,5.56
2019-03-01T04:17:55.233Z,5.69
2019-03-01T04:22:59.459Z,5.79
2019-03-01T04:28:03.694Z,5.78
2019-03-01T04:33:08.011Z,5.66
2019-03-01T04:38:12.232Z,5.47
2019-03-01T04:43:16.467Z,5.37
2019-03-01T04:48:20.703Z,5.50
2019-03-01T04:53:25.003Z,5.68
2019-03-01T04:58:29.067Z,5.52
2019-03-01T05:03:33.288Z,5.59
2019-03-01T05:08:37.516Z,5.37
2019-03-01T05:13:41.744Z,5.44
2019-03-01T05:18:45.976Z,5.39
2019-03-01T05:23:50.204Z,5.63
2019-03-01T05:28:54.437Z,5.72
2019-03-01T05:33:58.674Z,5.78
2019-03-01T05:39:03.179Z,5.84
2019-03-01T05:44:07.404Z,5.86
2019-03-01T05:49:11.648Z,5.60
2019-03-01T05:54:15.885Z,5.55
2019-03-01T05:59:22.667Z,5.50
2019-03-01T06:04:59.708Z,5.48
2019-03-01T06:10:11.688Z,5.50
2019-03-01T06:16:08.715Z,5.52
2019-03-01T06:21:22.437Z,5.60
2019-03-01T06:26:55.660Z,5.84
2019-03-01T06:32:42.286Z,5.97
2019-03-01T06:39:04.262Z,6.03
2019-03-01T06:44:45.343Z,6.20
2019-03-01T06:50:13.086Z,6.06
2019-03-01T06:55:38.439Z,6.13
2019-03-01T07:00:50.163Z,6.19
2019-03-01T07:05:51.468Z,6.33
2019-03-01T07:10:55.692Z,6.36
2019-03-01T07:15:59.925Z,6.23
2019-03-01T07:21:04.146Z,6.35
2019-03-01T07:26:08.375Z,6.42
2019-03-01T07:31:12.604Z,6.46
2019-03-01T07:36:16.839Z,6.48
2019-03-01T07:41:21.082Z,6.44
2019-03-01T07:46:25.375Z,6.37
2019-03-01T07:52:17.811Z,6.41
2019-03-01T07:57:22.062Z,6.44
2019-03-01T08:02:26.321Z,6.51
2019-03-01T08:07:30.556Z,6.54
2019-03-01T08:12:34.790Z,6.57
2019-03-01T08:17:39.090Z,6.57
2019-03-01T08:22:48.633Z,6.60
2019-03-01T08:27:50.423Z,6.65
2019-03-01T08:32:54.933Z,6.70
2019-03-01T08:37:59.157Z,6.75
2019-03-01T08:43:03.398Z,6.41
2019-03-01T08:48:07.836Z,6.69
2019-03-01T08:53:15.083Z,6.73
2019-03-01T08:58:18.092Z,6.76
2019-03-01T09:03:36.372Z,6.80
2019-03-01T09:08:42.936Z,6.75
2019-03-01T09:13:46.603Z,6.76
2019-03-01T09:18:50.982Z,6.82
2019-03-01T09:23:55.274Z,6.77
2019-03-01T09:28:59.509Z,6.83
2019-03-01T09:34:06.064Z,6.63
2019-03-01T09:39:10.466Z,6.76
2019-03-01T09:44:14.712Z,6.85
2019-03-01T09:49:21.510Z,6.85
2019-03-01T09:54:24.944Z,6.89
2019-03-01T09:59:29.173Z,6.82
2019-03-01T10:04:33.398Z,6.97
2019-03-01T10:09:37.628Z,6.96
2019-03-01T10:14:41.864Z,7.04
2019-03-01T10:19:46.093Z,7.06
2019-03-01T10:24:50.337Z,6.97
2019-03-01T10:29:54.567Z,6.97
2019-03-01T10:34:58.923Z,7.01
2019-03-01T10:40:03.282Z,6.95
2019-03-01T10:45:10.076Z,6.92
2019-03-01T10:50:14.571Z,6.87
2019-03-01T10:55:18.837Z,6.85
2019-03-01T11:00:24.735Z,6.69
2019-03-01T11:05:29.015Z,6.58
2019-03-01T11:10:35.502Z,6.42
2019-03-01T11:15:39.738Z,6.41
2019-03-01T11:20:44.318Z,6.47
2019-03-01T11:25:48.560Z,6.54
2019-03-01T11:30:52.793Z,6.43
2019-03-01T11:35:57.042Z,6.43
2019-03-01T11:41:01.501Z,6.48
2019-03-01T11:46:06.244Z,6.53
2019-03-01T11:51:10.501Z,6.62
2019-03-01T11:56:14.923Z,6.52
2019-03-01T12:01:19.192Z,6.49
2019-03-01T12:06:23.700Z,6.58
2019-03-01T12:11:27.938Z,6.50
2019-03-01T12:16:32.235Z,6.59
2019-03-01T12:21:36.478Z,6.55
2019-03-01T12:26:40.713Z,6.43
2019-03-01T12:31:44.974Z,6.43
2019-03-01T12:36:49.776Z,6.59
2019-03-01T12:41:54.021Z,6.34
2019-03-01T12:46:58.493Z,6.08
2019-03-01T12:52:02.833Z,6.17
2019-03-01T12:57:07.963Z,6.26
2019-03-01T13:02:12.237Z,6.00
2019-03-01T13:07:16.315Z,5.96
2019-03-01T13:12:22.407Z,5.85
2019-03-01T13:17:26.774Z,5.93
2019-03-01T13:22:31.122Z,5.77
2019-03-01T13:27:35.640Z,5.68
2019-03-01T13:32:39.906Z,6.55
2019-03-01T13:37:44.318Z,7.38
2019-03-01T13:42:50.645Z,7.17
2019-03-01T13:47:54.546Z,6.09
2019-03-01T13:52:58.832Z,5.87
2019-03-01T13:58:03.065Z,5.88
2019-03-01T14:03:07.287Z,6.17
2019-03-01T14:08:11.531Z,6.13
2019-03-01T14:13:16.149Z,6.28
2019-03-01T14:18:20.416Z,6.36
2019-03-01T14:23:25.878Z,6.49
2019-03-01T14:28:30.187Z,6.53
2019-03-01T14:33:34.401Z,6.67
2019-03-01T14:38:38.634Z,6.82
2019-03-01T14:43:43.049Z,6.81
2019-03-01T14:48:47.371Z,6.78
2019-03-01T14:53:51.596Z,6.71
2019-03-01T14:59:16.832Z,6.43
2019-03-01T15:04:21.084Z,6.63
2019-03-01T15:09:25.524Z,6.55
2019-03-01T15:14:29.867Z,6.48
2019-03-01T15:19:34.105Z,6.37
2019-03-01T15:24:38.329Z,6.39
2019-03-01T15:29:42.593Z,6.37
2019-03-01T15:34:46.814Z,6.28
2019-03-01T15:39:51.307Z,6.23
2019-03-01T15:44:57.007Z,6.29
2019-03-01T15:50:01.235Z,6.24
2019-03-01T15:55:07.841Z,6.37
2019-03-01T16:00:13.543Z,6.27
2019-03-01T16:05:17.755Z,6.21
2019-03-01T16:10:22.010Z,6.19
2019-03-01T16:15:26.248Z,6.18
2019-03-01T16:20:30.755Z,6.04
2019-03-01T16:25:34.979Z,6.01
2019-03-01T16:30:39.219Z,5.99
2019-03-01T16:35:43.495Z,5.95
2019-03-01T16:40:47.757Z,5.86
2019-03-01T16:45:53.266Z,5.88
2019-03-01T16:50:58.428Z,5.98
2019-03-01T16:56:03.468Z,5.88
2019-03-01T17:01:08.764Z,5.86
2019-03-01T17:06:13.795Z,5.93
2019-03-01T17:11:18.988Z,5.87
2019-03-01T17:16:23.732Z,5.92
2019-03-01T17:21:28.942Z,5.94
2019-03-01T17:26:33.170Z,5.95
2019-03-01T17:31:37.402Z,5.62
2019-03-01T17:36:41.666Z,5.73
2019-03-01T17:41:48.349Z,5.72
2019-03-01T17:46:52.152Z,5.72
2019-03-01T17:51:57.471Z,5.72
2019-03-01T17:57:02.028Z,5.66
2019-03-01T18:02:06.380Z,5.61
2019-03-01T18:07:10.819Z,5.58
2019-03-01T18:12:17.486Z,5.52
2019-03-01T18:17:21.070Z,5.42
2019-03-01T18:22:26.401Z,5.41
2019-03-01T18:27:31.316Z,5.40
2019-03-01T18:32:35.547Z,5.20
2019-03-01T18:37:39.793Z,5.29
2019-03-01T18:42:44.022Z,5.16
2019-03-01T18:47:48.257Z,4.91
2019-03-01T18:52:53.231Z,4.98
2019-03-01T18:57:58.411Z,5.02
2019-03-01T19:03:04.352Z,5.01
2019-03-01T19:08:08.710Z,4.94
2019-03-01T19:13:12.952Z,4.93
2019-03-01T19:18:17.762Z,4.84
2019-03-01T19:23:22.040Z,4.81
2019-03-01T19:28:26.858Z,4.68
2019-03-01T19:33:34.714Z,4.68
2019-03-01T19:38:38.014Z,4.58
2019-03-01T19:43:45.367Z,4.63
2019-03-01T19:48:48.816Z,4.34
2019-03-01T19:53:53.196Z,4.38
2019-03-01T19:58:59.295Z,4.44
2019-03-01T20:04:04.060Z,4.30
2019-03-01T20:09:09.790Z,4.27
2019-03-01T20:14:16.869Z,4.51
2019-03-01T20:19:21.846Z,4.48
2019-03-01T20:24:26.875Z,4.33
2019-03-01T20:29:31.362Z,4.39
2019-03-01T20:34:37.943Z,4.29
2019-03-01T20:39:44.182Z,4.28
2019-03-01T20:44:50.351Z,4.30
2019-03-01T20:49:55.886Z,4.26
2019-03-01T20:55:01.669Z,4.22
2019-03-01T21:00:08.334Z,4.14
2019-03-01T21:05:13.088Z,4.34
2019-03-01T21:10:19.580Z,4.34
2019-03-01T21:15:23.863Z,4.29
2019-03-01T21:20:28.822Z,4.21
2019-03-01T21:25:35.822Z,4.29
2019-03-01T21:30:39.126Z,4.29
2019-03-01T21:35:43.402Z,4.35
2019-03-01T21:40:47.657Z,4.31
2019-03-01T21:45:51.921Z,4.33
2019-03-01T21:50:56.160Z,4.23
2019-03-01T21:56:00.590Z,4.24
2019-03-01T22:01:07.180Z,4.27
2019-03-01T22:06:11.392Z,4.21
2019-03-01T22:11:16.050Z,4.26
2019-03-01T22:16:20.275Z,4.10
2019-03-01T22:21:24.544Z,4.37
2019-03-01T22:26:28.841Z,4.27
2019-03-01T22:31:35.453Z,4.31
2019-03-01T22:36:39.148Z,4.41
2019-03-01T22:41:43.708Z,4.41
2019-03-01T22:46:48.046Z,4.34
2019-03-01T22:51:52.966Z,4.45
2019-03-01T22:56:58.155Z,4.35
2019-03-01T23:02:08.054Z,4.18
2019-03-01T23:07:11.638Z,4.12
2019-03-01T23:12:16.090Z,4.34
2019-03-01T23:17:20.429Z,4.25
2019-03-01T23:22:24.865Z,4.14
2019-03-01T23:27:31.810Z,4.31
2019-03-01T23:32:35.148Z,4.01
2019-03-01T23:37:39.901Z,4.25
2019-03-01T23:42:44.772Z,4.39
2019-03-01T23:47:48.994Z,4.35
2019-03-01T23:52:54.865Z,4.41
2019-03-01T23:58:05.685Z,4.45
